Grattan, Nebraska
Current Conditions -  °F | °C
As of 7:55 AM on Wednesday 26 Nov 2014 (Local Time) from KONL Reporting Station
Overcast Overcast  
Wind Chill:   Ceiling: 1200
Heat Index: 23°   Visibility: 10mi
Dew Point: 21°   Wind: 26mph
Humidity: 91%   Direction: 340°NNW
Pressure: 30.14"   Gusts: 35mph
Location:  42.6164°N, 98.6183°W
Report Text: KONL 261355Z AUTO 34023G30KT 10SM OVC012 M05/M06 A3014 RMK AO2 T10481060
Loading
Personal Weather Stations






























Interactive Weather Map New forecast layout! Learn more

10-Day Weather Forecast

Advertisements
Track Severe Weather on mobile